sensor_id;sensor_type;location;lat;lon;timestamp;P1;durP1;ratioP1;P2;durP2;ratioP2
18170;SDS011;9210;48.358;10.902;2022-11-27T00:01:52;63.80;;;21.93;;
18170;SDS011;9210;48.358;10.902;2022-11-27T00:04:21;44.03;;;20.77;;
18170;SDS011;9210;48.358;10.902;2022-11-27T00:06:50;41.23;;;18.30;;
18170;SDS011;9210;48.358;10.902;2022-11-27T00:09:20;42.63;;;18.30;;
18170;SDS011;9210;48.358;10.902;2022-11-27T00:11:48;51.43;;;18.40;;
18170;SDS011;9210;48.358;10.902;2022-11-27T00:14:17;104.10;;;19.67;;
18170;SDS011;9210;48.358;10.902;2022-11-27T00:16:45;124.80;;;24.00;;
18170;SDS011;9210;48.358;10.902;2022-11-27T00:19:14;35.07;;;16.40;;
18170;SDS011;9210;48.358;10.902;2022-11-27T00:21:42;54.87;;;19.47;;
18170;SDS011;9210;48.358;10.902;2022-11-27T00:24:11;127.63;;;24.27;;
18170;SDS011;9210;48.358;10.902;2022-11-27T00:26:41;126.40;;;23.30;;
18170;SDS011;9210;48.358;10.902;2022-11-27T00:29:13;128.83;;;24.23;;
18170;SDS011;9210;48.358;10.902;2022-11-27T00:31:41;93.03;;;20.83;;
18170;SDS011;9210;48.358;10.902;2022-11-27T00:34:10;102.80;;;22.70;;
18170;SDS011;9210;48.358;10.902;2022-11-27T00:36:38;75.70;;;19.33;;
18170;SDS011;9210;48.358;10.902;2022-11-27T00:39:13;38.73;;;15.30;;
18170;SDS011;9210;48.358;10.902;2022-11-27T00:41:43;54.33;;;17.07;;
18170;SDS011;9210;48.358;10.902;2022-11-27T00:44:12;57.67;;;15.70;;
18170;SDS011;9210;48.358;10.902;2022-11-27T00:46:41;59.00;;;16.07;;
18170;SDS011;9210;48.358;10.902;2022-11-27T00:49:09;58.00;;;16.57;;
18170;SDS011;9210;48.358;10.902;2022-11-27T00:51:39;35.07;;;13.73;;
18170;SDS011;9210;48.358;10.902;2022-11-27T00:54:08;71.30;;;16.37;;
18170;SDS011;9210;48.358;10.902;2022-11-27T00:56:37;42.37;;;13.73;;
18170;SDS011;9210;48.358;10.902;2022-11-27T00:59:08;69.53;;;17.73;;
18170;SDS011;9210;48.358;10.902;2022-11-27T01:01:37;39.93;;;15.07;;
18170;SDS011;9210;48.358;10.902;2022-11-27T01:04:07;62.07;;;16.90;;
18170;SDS011;9210;48.358;10.902;2022-11-27T01:06:37;40.30;;;14.90;;
18170;SDS011;9210;48.358;10.902;2022-11-27T01:09:06;57.87;;;16.23;;
18170;SDS011;9210;48.358;10.902;2022-11-27T01:11:35;31.07;;;13.47;;
18170;SDS011;9210;48.358;10.902;2022-11-27T01:14:04;26.30;;;12.80;;
18170;SDS011;9210;48.358;10.902;2022-11-27T01:16:34;31.10;;;12.43;;
18170;SDS011;9210;48.358;10.902;2022-11-27T01:19:08;42.03;;;14.57;;
18170;SDS011;9210;48.358;10.902;2022-11-27T01:21:37;52.43;;;15.73;;
18170;SDS011;9210;48.358;10.902;2022-11-27T01:24:06;70.57;;;16.90;;
18170;SDS011;9210;48.358;10.902;2022-11-27T01:26:35;49.07;;;14.63;;
18170;SDS011;9210;48.358;10.902;2022-11-27T01:29:03;22.70;;;11.67;;
18170;SDS011;9210;48.358;10.902;2022-11-27T01:31:33;28.00;;;12.80;;
18170;SDS011;9210;48.358;10.902;2022-11-27T01:34:03;24.10;;;12.53;;
18170;SDS011;9210;48.358;10.902;2022-11-27T01:36:33;138.73;;;18.00;;
18170;SDS011;9210;48.358;10.902;2022-11-27T01:39:02;35.30;;;15.57;;
18170;SDS011;9210;48.358;10.902;2022-11-27T01:41:31;47.50;;;16.33;;
18170;SDS011;9210;48.358;10.902;2022-11-27T01:44:01;23.30;;;13.03;;
18170;SDS011;9210;48.358;10.902;2022-11-27T01:46:32;24.97;;;12.90;;
18170;SDS011;9210;48.358;10.902;2022-11-27T01:49:13;48.30;;;14.60;;
18170;SDS011;9210;48.358;10.902;2022-11-27T01:51:44;22.47;;;12.50;;
18170;SDS011;9210;48.358;10.902;2022-11-27T01:54:14;23.20;;;11.97;;
18170;SDS011;9210;48.358;10.902;2022-11-27T01:56:43;24.47;;;12.17;;
18170;SDS011;9210;48.358;10.902;2022-11-27T01:59:13;39.57;;;13.80;;
18170;SDS011;9210;48.358;10.902;2022-11-27T02:01:43;35.67;;;12.50;;
18170;SDS011;9210;48.358;10.902;2022-11-27T02:04:13;21.10;;;10.83;;
18170;SDS011;9210;48.358;10.902;2022-11-27T02:06:41;29.17;;;12.20;;
18170;SDS011;9210;48.358;10.902;2022-11-27T02:09:10;40.10;;;12.87;;
18170;SDS011;9210;48.358;10.902;2022-11-27T02:11:39;16.20;;;9.70;;
18170;SDS011;9210;48.358;10.902;2022-11-27T02:14:12;19.93;;;11.03;;
18170;SDS011;9210;48.358;10.902;2022-11-27T02:16:42;36.67;;;13.63;;
18170;SDS011;9210;48.358;10.902;2022-11-27T02:19:15;35.00;;;13.23;;
18170;SDS011;9210;48.358;10.902;2022-11-27T02:21:49;48.70;;;14.20;;
18170;SDS011;9210;48.358;10.902;2022-11-27T02:24:32;45.73;;;12.33;;
18170;SDS011;9210;48.358;10.902;2022-11-27T02:33:57;154.13;;;19.67;;
18170;SDS011;9210;48.358;10.902;2022-11-27T02:36:28;100.03;;;17.93;;
18170;SDS011;9210;48.358;10.902;2022-11-27T02:38:58;119.90;;;19.13;;
18170;SDS011;9210;48.358;10.902;2022-11-27T02:41:32;91.33;;;16.20;;
18170;SDS011;9210;48.358;10.902;2022-11-27T02:44:05;80.70;;;16.40;;
18170;SDS011;9210;48.358;10.902;2022-11-27T02:46:36;109.03;;;18.53;;
18170;SDS011;9210;48.358;10.902;2022-11-27T02:49:11;36.07;;;13.23;;
18170;SDS011;9210;48.358;10.902;2022-11-27T02:51:55;33.70;;;13.33;;
18170;SDS011;9210;48.358;10.902;2022-11-27T02:54:26;21.27;;;12.20;;
18170;SDS011;9210;48.358;10.902;2022-11-27T02:56:57;47.73;;;14.17;;
18170;SDS011;9210;48.358;10.902;2022-11-27T02:59:27;40.43;;;14.20;;
18170;SDS011;9210;48.358;10.902;2022-11-27T03:01:58;32.20;;;15.10;;
18170;SDS011;9210;48.358;10.902;2022-11-27T03:04:30;53.10;;;16.23;;
18170;SDS011;9210;48.358;10.902;2022-11-27T03:07:01;26.40;;;12.03;;
18170;SDS011;9210;48.358;10.902;2022-11-27T03:09:31;47.47;;;16.23;;
18170;SDS011;9210;48.358;10.902;2022-11-27T03:12:02;79.63;;;16.57;;
18170;SDS011;9210;48.358;10.902;2022-11-27T03:14:32;55.53;;;16.07;;
18170;SDS011;9210;48.358;10.902;2022-11-27T03:17:01;84.47;;;16.17;;
18170;SDS011;9210;48.358;10.902;2022-11-27T03:19:40;75.40;;;16.83;;
18170;SDS011;9210;48.358;10.902;2022-11-27T03:22:12;69.67;;;17.37;;
18170;SDS011;9210;48.358;10.902;2022-11-27T03:24:40;46.93;;;15.10;;
18170;SDS011;9210;48.358;10.902;2022-11-27T03:27:08;47.80;;;15.50;;
18170;SDS011;9210;48.358;10.902;2022-11-27T03:29:44;34.03;;;14.07;;
18170;SDS011;9210;48.358;10.902;2022-11-27T03:32:15;37.37;;;14.27;;
18170;SDS011;9210;48.358;10.902;2022-11-27T03:34:50;32.60;;;13.87;;
18170;SDS011;9210;48.358;10.902;2022-11-27T03:37:19;41.20;;;15.90;;
18170;SDS011;9210;48.358;10.902;2022-11-27T03:39:47;36.50;;;15.90;;
18170;SDS011;9210;48.358;10.902;2022-11-27T03:42:17;28.97;;;13.07;;
18170;SDS011;9210;48.358;10.902;2022-11-27T03:44:52;30.30;;;14.33;;
18170;SDS011;9210;48.358;10.902;2022-11-27T03:47:32;33.07;;;12.97;;
18170;SDS011;9210;48.358;10.902;2022-11-27T03:50:12;19.27;;;11.57;;
18170;SDS011;9210;48.358;10.902;2022-11-27T03:52:49;55.17;;;13.40;;
18170;SDS011;9210;48.358;10.902;2022-11-27T03:55:24;88.20;;;17.20;;
18170;SDS011;9210;48.358;10.902;2022-11-27T03:57:59;44.97;;;14.53;;
18170;SDS011;9210;48.358;10.902;2022-11-27T04:00:30;50.57;;;14.37;;
18170;SDS011;9210;48.358;10.902;2022-11-27T04:03:02;96.77;;;15.90;;
18170;SDS011;9210;48.358;10.902;2022-11-27T04:05:32;77.90;;;16.73;;
18170;SDS011;9210;48.358;10.902;2022-11-27T04:08:00;57.10;;;15.20;;
18170;SDS011;9210;48.358;10.902;2022-11-27T04:10:29;84.87;;;17.77;;
18170;SDS011;9210;48.358;10.902;2022-11-27T04:12:57;28.97;;;12.33;;
18170;SDS011;9210;48.358;10.902;2022-11-27T04:15:25;23.07;;;12.77;;
18170;SDS011;9210;48.358;10.902;2022-11-27T04:17:53;30.97;;;13.33;;
18170;SDS011;9210;48.358;10.902;2022-11-27T04:20:21;30.30;;;13.17;;
18170;SDS011;9210;48.358;10.902;2022-11-27T04:22:51;40.27;;;16.17;;
18170;SDS011;9210;48.358;10.902;2022-11-27T04:25:19;36.37;;;15.73;;
18170;SDS011;9210;48.358;10.902;2022-11-27T04:27:47;26.37;;;12.57;;
18170;SDS011;9210;48.358;10.902;2022-11-27T04:30:16;46.80;;;15.43;;
18170;SDS011;9210;48.358;10.902;2022-11-27T04:32:44;50.67;;;16.40;;
18170;SDS011;9210;48.358;10.902;2022-11-27T04:35:13;57.50;;;16.77;;
18170;SDS011;9210;48.358;10.902;2022-11-27T04:37:41;48.03;;;16.83;;
18170;SDS011;9210;48.358;10.902;2022-11-27T04:40:11;44.67;;;16.37;;
18170;SDS011;9210;48.358;10.902;2022-11-27T04:42:40;70.00;;;16.53;;
18170;SDS011;9210;48.358;10.902;2022-11-27T04:45:08;85.67;;;18.60;;
18170;SDS011;9210;48.358;10.902;2022-11-27T04:47:37;95.57;;;19.97;;
18170;SDS011;9210;48.358;10.902;2022-11-27T04:50:06;68.17;;;18.00;;
18170;SDS011;9210;48.358;10.902;2022-11-27T04:52:34;44.07;;;18.13;;
18170;SDS011;9210;48.358;10.902;2022-11-27T04:55:03;27.47;;;14.07;;
18170;SDS011;9210;48.358;10.902;2022-11-27T04:57:33;20.80;;;12.23;;
18170;SDS011;9210;48.358;10.902;2022-11-27T05:00:02;24.07;;;13.27;;
18170;SDS011;9210;48.358;10.902;2022-11-27T05:02:32;18.57;;;11.70;;
18170;SDS011;9210;48.358;10.902;2022-11-27T05:05:00;17.67;;;11.00;;
18170;SDS011;9210;48.358;10.902;2022-11-27T05:07:28;18.27;;;11.00;;
18170;SDS011;9210;48.358;10.902;2022-11-27T05:09:56;20.07;;;12.03;;
18170;SDS011;9210;48.358;10.902;2022-11-27T05:12:25;18.97;;;11.50;;
18170;SDS011;9210;48.358;10.902;2022-11-27T05:14:54;20.20;;;12.10;;
18170;SDS011;9210;48.358;10.902;2022-11-27T05:17:29;16.27;;;9.80;;
18170;SDS011;9210;48.358;10.902;2022-11-27T05:19:57;20.83;;;11.40;;
18170;SDS011;9210;48.358;10.902;2022-11-27T05:22:25;17.47;;;10.50;;
18170;SDS011;9210;48.358;10.902;2022-11-27T05:24:54;21.00;;;11.60;;
18170;SDS011;9210;48.358;10.902;2022-11-27T05:27:22;22.27;;;12.30;;
18170;SDS011;9210;48.358;10.902;2022-11-27T05:29:50;25.60;;;12.47;;
18170;SDS011;9210;48.358;10.902;2022-11-27T05:32:20;24.83;;;13.60;;
18170;SDS011;9210;48.358;10.902;2022-11-27T05:34:48;27.37;;;13.93;;
18170;SDS011;9210;48.358;10.902;2022-11-27T05:37:16;21.77;;;13.57;;
18170;SDS011;9210;48.358;10.902;2022-11-27T05:39:45;20.37;;;11.43;;
18170;SDS011;9210;48.358;10.902;2022-11-27T05:42:13;19.73;;;11.70;;
18170;SDS011;9210;48.358;10.902;2022-11-27T05:44:41;19.80;;;10.70;;
18170;SDS011;9210;48.358;10.902;2022-11-27T05:47:09;19.33;;;10.93;;
18170;SDS011;9210;48.358;10.902;2022-11-27T05:49:39;20.40;;;11.20;;
18170;SDS011;9210;48.358;10.902;2022-11-27T05:52:07;15.43;;;9.60;;
18170;SDS011;9210;48.358;10.902;2022-11-27T05:54:39;16.70;;;10.13;;
18170;SDS011;9210;48.358;10.902;2022-11-27T05:57:07;15.30;;;9.47;;
18170;SDS011;9210;48.358;10.902;2022-11-27T05:59:36;19.10;;;10.77;;
18170;SDS011;9210;48.358;10.902;2022-11-27T06:02:06;21.00;;;12.03;;
18170;SDS011;9210;48.358;10.902;2022-11-27T06:04:34;20.40;;;11.40;;
18170;SDS011;9210;48.358;10.902;2022-11-27T06:07:04;23.93;;;12.97;;
18170;SDS011;9210;48.358;10.902;2022-11-27T06:09:33;22.27;;;11.90;;
18170;SDS011;9210;48.358;10.902;2022-11-27T06:12:01;17.77;;;11.63;;
18170;SDS011;9210;48.358;10.902;2022-11-27T06:14:30;21.33;;;11.77;;
18170;SDS011;9210;48.358;10.902;2022-11-27T06:17:00;17.00;;;10.27;;
18170;SDS011;9210;48.358;10.902;2022-11-27T06:19:29;15.77;;;9.67;;
18170;SDS011;9210;48.358;10.902;2022-11-27T06:21:57;19.80;;;10.77;;
18170;SDS011;9210;48.358;10.902;2022-11-27T06:24:27;20.63;;;11.40;;
18170;SDS011;9210;48.358;10.902;2022-11-27T06:26:55;19.27;;;10.60;;
18170;SDS011;9210;48.358;10.902;2022-11-27T06:29:23;23.90;;;12.23;;
18170;SDS011;9210;48.358;10.902;2022-11-27T06:31:51;31.90;;;12.63;;
18170;SDS011;9210;48.358;10.902;2022-11-27T06:34:20;50.27;;;14.10;;
18170;SDS011;9210;48.358;10.902;2022-11-27T06:36:48;36.40;;;13.33;;
18170;SDS011;9210;48.358;10.902;2022-11-27T06:39:16;21.40;;;11.87;;
18170;SDS011;9210;48.358;10.902;2022-11-27T06:41:46;18.03;;;10.17;;
18170;SDS011;9210;48.358;10.902;2022-11-27T06:44:14;22.80;;;11.40;;
18170;SDS011;9210;48.358;10.902;2022-11-27T06:46:42;42.07;;;11.47;;
18170;SDS011;9210;48.358;10.902;2022-11-27T06:49:11;23.80;;;8.93;;
18170;SDS011;9210;48.358;10.902;2022-11-27T06:51:39;14.97;;;9.13;;
18170;SDS011;9210;48.358;10.902;2022-11-27T06:54:08;35.20;;;12.07;;
18170;SDS011;9210;48.358;10.902;2022-11-27T06:56:36;19.77;;;10.93;;
18170;SDS011;9210;48.358;10.902;2022-11-27T06:59:06;31.80;;;11.93;;
18170;SDS011;9210;48.358;10.902;2022-11-27T07:01:34;18.37;;;9.97;;
18170;SDS011;9210;48.358;10.902;2022-11-27T07:04:02;36.87;;;10.23;;
18170;SDS011;9210;48.358;10.902;2022-11-27T07:06:31;14.70;;;8.37;;
18170;SDS011;9210;48.358;10.902;2022-11-27T07:09:00;21.60;;;10.10;;
18170;SDS011;9210;48.358;10.902;2022-11-27T07:11:28;21.03;;;10.03;;
18170;SDS011;9210;48.358;10.902;2022-11-27T07:13:58;188.40;;;15.63;;
18170;SDS011;9210;48.358;10.902;2022-11-27T07:16:28;187.50;;;16.87;;
18170;SDS011;9210;48.358;10.902;2022-11-27T07:18:58;218.37;;;16.60;;
18170;SDS011;9210;48.358;10.902;2022-11-27T07:21:27;207.97;;;18.07;;
18170;SDS011;9210;48.358;10.902;2022-11-27T07:23:56;201.20;;;16.70;;
18170;SDS011;9210;48.358;10.902;2022-11-27T07:26:25;60.33;;;13.77;;
18170;SDS011;9210;48.358;10.902;2022-11-27T07:28:54;31.47;;;11.90;;
18170;SDS011;9210;48.358;10.902;2022-11-27T07:31:24;45.27;;;12.00;;
18170;SDS011;9210;48.358;10.902;2022-11-27T07:33:55;29.87;;;11.77;;
18170;SDS011;9210;48.358;10.902;2022-11-27T07:36:24;137.73;;;15.13;;
18170;SDS011;9210;48.358;10.902;2022-11-27T07:38:54;120.60;;;15.00;;
18170;SDS011;9210;48.358;10.902;2022-11-27T07:41:23;37.03;;;12.60;;
18170;SDS011;9210;48.358;10.902;2022-11-27T07:43:58;38.43;;;12.50;;
18170;SDS011;9210;48.358;10.902;2022-11-27T07:46:27;32.87;;;12.63;;
18170;SDS011;9210;48.358;10.902;2022-11-27T07:48:57;35.80;;;12.13;;
18170;SDS011;9210;48.358;10.902;2022-11-27T07:51:27;19.83;;;10.87;;
18170;SDS011;9210;48.358;10.902;2022-11-27T07:53:55;22.43;;;11.60;;
18170;SDS011;9210;48.358;10.902;2022-11-27T07:56:24;17.93;;;10.50;;
18170;SDS011;9210;48.358;10.902;2022-11-27T07:58:52;16.57;;;9.23;;
18170;SDS011;9210;48.358;10.902;2022-11-27T08:01:21;20.10;;;9.40;;
18170;SDS011;9210;48.358;10.902;2022-11-27T08:03:50;15.40;;;9.47;;
18170;SDS011;9210;48.358;10.902;2022-11-27T08:06:21;21.50;;;10.33;;
18170;SDS011;9210;48.358;10.902;2022-11-27T08:08:51;20.73;;;10.73;;
18170;SDS011;9210;48.358;10.902;2022-11-27T08:11:22;14.87;;;9.40;;
18170;SDS011;9210;48.358;10.902;2022-11-27T08:13:54;13.63;;;8.30;;
18170;SDS011;9210;48.358;10.902;2022-11-27T08:16:23;12.20;;;8.03;;
18170;SDS011;9210;48.358;10.902;2022-11-27T08:18:51;14.90;;;9.00;;
18170;SDS011;9210;48.358;10.902;2022-11-27T08:21:21;12.33;;;8.10;;
18170;SDS011;9210;48.358;10.902;2022-11-27T08:23:51;12.23;;;7.50;;
18170;SDS011;9210;48.358;10.902;2022-11-27T08:26:20;12.43;;;8.00;;
18170;SDS011;9210;48.358;10.902;2022-11-27T08:28:50;10.37;;;7.60;;
18170;SDS011;9210;48.358;10.902;2022-11-27T08:31:19;15.43;;;8.40;;
18170;SDS011;9210;48.358;10.902;2022-11-27T08:33:48;14.07;;;8.63;;
18170;SDS011;9210;48.358;10.902;2022-11-27T08:36:16;12.30;;;7.23;;
18170;SDS011;9210;48.358;10.902;2022-11-27T08:38:46;11.63;;;7.23;;
18170;SDS011;9210;48.358;10.902;2022-11-27T08:41:15;13.27;;;8.40;;
18170;SDS011;9210;48.358;10.902;2022-11-27T08:43:43;10.70;;;7.23;;
18170;SDS011;9210;48.358;10.902;2022-11-27T08:46:12;11.20;;;7.53;;
18170;SDS011;9210;48.358;10.902;2022-11-27T08:48:41;11.40;;;7.27;;
18170;SDS011;9210;48.358;10.902;2022-11-27T08:51:10;12.13;;;7.63;;
18170;SDS011;9210;48.358;10.902;2022-11-27T08:53:39;10.80;;;7.50;;
18170;SDS011;9210;48.358;10.902;2022-11-27T08:56:14;10.60;;;7.13;;
18170;SDS011;9210;48.358;10.902;2022-11-27T08:58:44;15.07;;;9.17;;
18170;SDS011;9210;48.358;10.902;2022-11-27T09:01:14;13.97;;;8.63;;
18170;SDS011;9210;48.358;10.902;2022-11-27T09:03:43;10.63;;;7.13;;
18170;SDS011;9210;48.358;10.902;2022-11-27T09:06:13;13.00;;;7.90;;
18170;SDS011;9210;48.358;10.902;2022-11-27T09:08:42;12.23;;;8.27;;
18170;SDS011;9210;48.358;10.902;2022-11-27T09:11:11;12.97;;;8.60;;
18170;SDS011;9210;48.358;10.902;2022-11-27T09:13:41;13.33;;;9.10;;
18170;SDS011;9210;48.358;10.902;2022-11-27T09:16:13;14.90;;;9.73;;
18170;SDS011;9210;48.358;10.902;2022-11-27T09:18:43;17.10;;;10.40;;
18170;SDS011;9210;48.358;10.902;2022-11-27T09:21:12;14.23;;;9.53;;
18170;SDS011;9210;48.358;10.902;2022-11-27T09:23:40;16.73;;;11.37;;
18170;SDS011;9210;48.358;10.902;2022-11-27T09:26:10;16.77;;;10.33;;
18170;SDS011;9210;48.358;10.902;2022-11-27T09:28:38;21.17;;;12.87;;
18170;SDS011;9210;48.358;10.902;2022-11-27T09:31:09;16.83;;;11.10;;
18170;SDS011;9210;48.358;10.902;2022-11-27T09:33:41;20.00;;;12.20;;
18170;SDS011;9210;48.358;10.902;2022-11-27T09:36:10;20.93;;;12.90;;
18170;SDS011;9210;48.358;10.902;2022-11-27T09:38:39;24.43;;;14.00;;
18170;SDS011;9210;48.358;10.902;2022-11-27T09:43:53;17.60;;;11.50;;
18170;SDS011;9210;48.358;10.902;2022-11-27T09:46:25;19.47;;;12.30;;
18170;SDS011;9210;48.358;10.902;2022-11-27T09:48:55;15.27;;;10.03;;
18170;SDS011;9210;48.358;10.902;2022-11-27T09:51:26;19.10;;;10.83;;
18170;SDS011;9210;48.358;10.902;2022-11-27T09:53:57;19.00;;;11.67;;
18170;SDS011;9210;48.358;10.902;2022-11-27T09:56:27;15.17;;;9.53;;
18170;SDS011;9210;48.358;10.902;2022-11-27T09:58:57;19.10;;;11.50;;
18170;SDS011;9210;48.358;10.902;2022-11-27T10:01:28;19.23;;;11.53;;
18170;SDS011;9210;48.358;10.902;2022-11-27T10:04:10;16.97;;;11.40;;
18170;SDS011;9210;48.358;10.902;2022-11-27T10:06:41;17.60;;;10.63;;
18170;SDS011;9210;48.358;10.902;2022-11-27T10:09:14;15.67;;;9.87;;
18170;SDS011;9210;48.358;10.902;2022-11-27T10:11:46;16.33;;;10.40;;
18170;SDS011;9210;48.358;10.902;2022-11-27T10:14:22;17.03;;;10.87;;
18170;SDS011;9210;48.358;10.902;2022-11-27T10:16:53;19.33;;;11.33;;
18170;SDS011;9210;48.358;10.902;2022-11-27T10:19:27;18.30;;;11.33;;
18170;SDS011;9210;48.358;10.902;2022-11-27T10:21:58;16.23;;;10.80;;
18170;SDS011;9210;48.358;10.902;2022-11-27T10:24:31;19.63;;;11.30;;
18170;SDS011;9210;48.358;10.902;2022-11-27T10:27:08;15.23;;;10.47;;
18170;SDS011;9210;48.358;10.902;2022-11-27T10:29:38;20.67;;;12.83;;
18170;SDS011;9210;48.358;10.902;2022-11-27T10:32:16;19.87;;;13.20;;
18170;SDS011;9210;48.358;10.902;2022-11-27T10:35:08;23.67;;;14.10;;
18170;SDS011;9210;48.358;10.902;2022-11-27T10:37:40;20.70;;;11.97;;
18170;SDS011;9210;48.358;10.902;2022-11-27T10:40:16;21.40;;;13.53;;
18170;SDS011;9210;48.358;10.902;2022-11-27T10:42:47;26.07;;;14.37;;
18170;SDS011;9210;48.358;10.902;2022-11-27T10:45:19;23.10;;;13.87;;
18170;SDS011;9210;48.358;10.902;2022-11-27T10:47:51;21.13;;;12.50;;
18170;SDS011;9210;48.358;10.902;2022-11-27T10:50:19;24.27;;;14.97;;
18170;SDS011;9210;48.358;10.902;2022-11-27T10:52:49;23.53;;;12.73;;
18170;SDS011;9210;48.358;10.902;2022-11-27T10:55:20;21.90;;;12.97;;
18170;SDS011;9210;48.358;10.902;2022-11-27T10:57:56;24.17;;;14.60;;
18170;SDS011;9210;48.358;10.902;2022-11-27T11:00:28;22.30;;;13.87;;
18170;SDS011;9210;48.358;10.902;2022-11-27T11:03:02;23.70;;;13.00;;
18170;SDS011;9210;48.358;10.902;2022-11-27T11:05:36;20.50;;;12.43;;
18170;SDS011;9210;48.358;10.902;2022-11-27T11:08:24;23.07;;;12.83;;
18170;SDS011;9210;48.358;10.902;2022-11-27T11:10:56;21.53;;;12.23;;
18170;SDS011;9210;48.358;10.902;2022-11-27T11:13:25;23.33;;;14.23;;
18170;SDS011;9210;48.358;10.902;2022-11-27T11:15:58;28.27;;;15.40;;
18170;SDS011;9210;48.358;10.902;2022-11-27T11:18:30;27.23;;;14.97;;
18170;SDS011;9210;48.358;10.902;2022-11-27T11:20:59;29.50;;;16.00;;
18170;SDS011;9210;48.358;10.902;2022-11-27T11:23:29;30.77;;;16.27;;
18170;SDS011;9210;48.358;10.902;2022-11-27T11:25:59;32.00;;;17.60;;
18170;SDS011;9210;48.358;10.902;2022-11-27T11:28:29;34.03;;;16.43;;
18170;SDS011;9210;48.358;10.902;2022-11-27T11:31:05;29.57;;;16.03;;
18170;SDS011;9210;48.358;10.902;2022-11-27T11:33:38;35.17;;;17.97;;
18170;SDS011;9210;48.358;10.902;2022-11-27T11:36:08;27.07;;;14.57;;
18170;SDS011;9210;48.358;10.902;2022-11-27T11:38:40;26.23;;;15.63;;
18170;SDS011;9210;48.358;10.902;2022-11-27T11:41:09;28.13;;;16.03;;
18170;SDS011;9210;48.358;10.902;2022-11-27T11:43:39;33.33;;;17.73;;
18170;SDS011;9210;48.358;10.902;2022-11-27T11:46:15;26.40;;;14.90;;
18170;SDS011;9210;48.358;10.902;2022-11-27T11:48:56;32.07;;;17.27;;
18170;SDS011;9210;48.358;10.902;2022-11-27T11:51:31;31.63;;;16.30;;
18170;SDS011;9210;48.358;10.902;2022-11-27T11:54:06;37.60;;;18.47;;
18170;SDS011;9210;48.358;10.902;2022-11-27T11:56:36;33.70;;;17.70;;
18170;SDS011;9210;48.358;10.902;2022-11-27T11:59:06;39.77;;;19.50;;
18170;SDS011;9210;48.358;10.902;2022-11-27T12:01:45;27.97;;;15.47;;
18170;SDS011;9210;48.358;10.902;2022-11-27T12:04:28;32.03;;;17.43;;
18170;SDS011;9210;48.358;10.902;2022-11-27T12:07:03;30.30;;;17.67;;
18170;SDS011;9210;48.358;10.902;2022-11-27T12:09:38;34.63;;;18.03;;
18170;SDS011;9210;48.358;10.902;2022-11-27T12:12:12;39.10;;;19.17;;
18170;SDS011;9210;48.358;10.902;2022-11-27T12:14:44;29.60;;;15.73;;
18170;SDS011;9210;48.358;10.902;2022-11-27T12:17:18;36.77;;;19.00;;
18170;SDS011;9210;48.358;10.902;2022-11-27T12:20:00;40.20;;;18.67;;
18170;SDS011;9210;48.358;10.902;2022-11-27T12:22:38;28.93;;;15.70;;
18170;SDS011;9210;48.358;10.902;2022-11-27T12:25:16;33.70;;;18.10;;
18170;SDS011;9210;48.358;10.902;2022-11-27T12:27:50;39.93;;;19.20;;
18170;SDS011;9210;48.358;10.902;2022-11-27T12:30:23;33.03;;;16.97;;
18170;SDS011;9210;48.358;10.902;2022-11-27T12:33:01;39.43;;;19.17;;
18170;SDS011;9210;48.358;10.902;2022-11-27T12:35:37;40.50;;;17.77;;
18170;SDS011;9210;48.358;10.902;2022-11-27T12:38:19;26.00;;;14.67;;
18170;SDS011;9210;48.358;10.902;2022-11-27T12:40:55;31.93;;;16.63;;
18170;SDS011;9210;48.358;10.902;2022-11-27T12:43:29;30.37;;;15.20;;
18170;SDS011;9210;48.358;10.902;2022-11-27T12:46:01;28.13;;;15.10;;
18170;SDS011;9210;48.358;10.902;2022-11-27T12:48:32;31.70;;;16.00;;
18170;SDS011;9210;48.358;10.902;2022-11-27T12:51:05;29.40;;;16.00;;
18170;SDS011;9210;48.358;10.902;2022-11-27T12:53:37;36.47;;;18.33;;
18170;SDS011;9210;48.358;10.902;2022-11-27T12:56:09;30.43;;;16.23;;
18170;SDS011;9210;48.358;10.902;2022-11-27T12:58:44;32.13;;;16.33;;
18170;SDS011;9210;48.358;10.902;2022-11-27T13:01:14;29.13;;;15.80;;
18170;SDS011;9210;48.358;10.902;2022-11-27T13:03:57;43.00;;;16.33;;
18170;SDS011;9210;48.358;10.902;2022-11-27T13:06:29;33.13;;;17.17;;
18170;SDS011;9210;48.358;10.902;2022-11-27T13:09:00;37.63;;;18.97;;
18170;SDS011;9210;48.358;10.902;2022-11-27T13:11:31;29.17;;;14.97;;
18170;SDS011;9210;48.358;10.902;2022-11-27T13:14:02;31.07;;;13.87;;
18170;SDS011;9210;48.358;10.902;2022-11-27T13:16:33;25.30;;;14.13;;
18170;SDS011;9210;48.358;10.902;2022-11-27T13:19:05;25.73;;;14.03;;
18170;SDS011;9210;48.358;10.902;2022-11-27T13:21:38;20.03;;;11.83;;
18170;SDS011;9210;48.358;10.902;2022-11-27T13:24:08;21.47;;;11.03;;
18170;SDS011;9210;48.358;10.902;2022-11-27T13:26:39;16.37;;;9.83;;
18170;SDS011;9210;48.358;10.902;2022-11-27T13:29:15;23.47;;;12.17;;
18170;SDS011;9210;48.358;10.902;2022-11-27T13:31:44;25.23;;;12.50;;
18170;SDS011;9210;48.358;10.902;2022-11-27T13:34:16;22.73;;;12.13;;
18170;SDS011;9210;48.358;10.902;2022-11-27T13:36:53;28.17;;;15.27;;
18170;SDS011;9210;48.358;10.902;2022-11-27T13:39:22;21.73;;;11.63;;
18170;SDS011;9210;48.358;10.902;2022-11-27T13:41:58;20.83;;;12.07;;
18170;SDS011;9210;48.358;10.902;2022-11-27T13:44:28;20.33;;;12.37;;
18170;SDS011;9210;48.358;10.902;2022-11-27T13:46:58;23.77;;;13.70;;
18170;SDS011;9210;48.358;10.902;2022-11-27T13:49:28;19.27;;;12.00;;
18170;SDS011;9210;48.358;10.902;2022-11-27T13:52:10;23.83;;;13.67;;
18170;SDS011;9210;48.358;10.902;2022-11-27T13:54:50;21.73;;;12.63;;
18170;SDS011;9210;48.358;10.902;2022-11-27T13:57:20;21.10;;;11.70;;
18170;SDS011;9210;48.358;10.902;2022-11-27T13:59:56;22.07;;;12.27;;
18170;SDS011;9210;48.358;10.902;2022-11-27T14:02:25;24.17;;;14.00;;
18170;SDS011;9210;48.358;10.902;2022-11-27T14:04:54;22.97;;;12.10;;
18170;SDS011;9210;48.358;10.902;2022-11-27T14:07:33;21.07;;;11.83;;
18170;SDS011;9210;48.358;10.902;2022-11-27T14:10:05;22.90;;;12.27;;
18170;SDS011;9210;48.358;10.902;2022-11-27T14:12:36;27.03;;;15.13;;
18170;SDS011;9210;48.358;10.902;2022-11-27T14:15:06;28.03;;;13.93;;
18170;SDS011;9210;48.358;10.902;2022-11-27T14:17:47;26.70;;;14.17;;
18170;SDS011;9210;48.358;10.902;2022-11-27T14:20:25;20.53;;;12.00;;
18170;SDS011;9210;48.358;10.902;2022-11-27T14:22:57;26.47;;;13.73;;
18170;SDS011;9210;48.358;10.902;2022-11-27T14:25:38;22.90;;;13.80;;
18170;SDS011;9210;48.358;10.902;2022-11-27T14:28:09;23.23;;;12.70;;
18170;SDS011;9210;48.358;10.902;2022-11-27T14:30:42;29.70;;;14.17;;
18170;SDS011;9210;48.358;10.902;2022-11-27T14:33:16;22.53;;;13.00;;
18170;SDS011;9210;48.358;10.902;2022-11-27T14:35:49;24.07;;;14.17;;
18170;SDS011;9210;48.358;10.902;2022-11-27T14:38:19;29.20;;;14.93;;
18170;SDS011;9210;48.358;10.902;2022-11-27T14:40:48;28.33;;;15.50;;
18170;SDS011;9210;48.358;10.902;2022-11-27T14:43:19;28.10;;;16.03;;
18170;SDS011;9210;48.358;10.902;2022-11-27T14:45:49;25.83;;;13.87;;
18170;SDS011;9210;48.358;10.902;2022-11-27T14:48:19;25.97;;;13.93;;
18170;SDS011;9210;48.358;10.902;2022-11-27T14:50:49;26.13;;;13.97;;
18170;SDS011;9210;48.358;10.902;2022-11-27T14:53:19;20.70;;;11.77;;
18170;SDS011;9210;48.358;10.902;2022-11-27T14:55:50;23.43;;;12.80;;